createdAt,value
2023-08-10T00:01:51.438Z,12
2023-08-10T00:04:22.702Z,12
2023-08-10T00:06:53.452Z,12
2023-08-10T00:09:24.381Z,12
2023-08-10T00:11:58.199Z,8
2023-08-10T00:14:30.316Z,12
2023-08-10T00:17:01.277Z,12
2023-08-10T00:19:32.349Z,9
2023-08-10T00:22:02.997Z,8
2023-08-10T00:24:33.986Z,8
2023-08-10T00:27:07.551Z,8
2023-08-10T00:29:38.469Z,8
2023-08-10T00:32:11.218Z,8
2023-08-10T00:34:42.684Z,8
2023-08-10T00:37:13.377Z,8
2023-08-10T00:39:46.813Z,9
2023-08-10T00:42:18.184Z,12
2023-08-10T00:44:49.435Z,12
2023-08-10T00:47:20.132Z,12
2023-08-10T00:49:53.024Z,16
2023-08-10T00:52:24.824Z,16
2023-08-10T00:54:58.076Z,16
2023-08-10T00:57:29.226Z,12
2023-08-10T00:59:59.937Z,15
2023-08-10T01:02:30.298Z,15
2023-08-10T01:04:59.541Z,12
2023-08-10T01:07:31.843Z,12
2023-08-10T01:10:03.844Z,16
2023-08-10T01:12:34.584Z,12
2023-08-10T01:15:05.383Z,12
2023-08-10T01:17:36.089Z,12
2023-08-10T01:20:07.958Z,16
2023-08-10T01:22:39.687Z,16
2023-08-10T01:25:10.998Z,13
2023-08-10T01:27:41.777Z,12
2023-08-10T01:30:12.640Z,16
2023-08-10T01:32:44.090Z,16
2023-08-10T01:35:14.908Z,15
2023-08-10T01:37:45.982Z,13
2023-08-10T01:40:17.319Z,12
2023-08-10T01:42:48.411Z,12
2023-08-10T01:45:19.709Z,12
2023-08-10T01:47:50.491Z,12
2023-08-10T01:50:22.108Z,8
2023-08-10T01:52:56.674Z,8
2023-08-10T01:55:27.369Z,9
2023-08-10T01:57:56.974Z,12
2023-08-10T02:00:29.953Z,8
2023-08-10T02:03:01.790Z,10
2023-08-10T02:05:35.470Z,8
2023-08-10T02:08:07.117Z,8
2023-08-10T02:10:39.388Z,12
2023-08-10T02:13:12.836Z,12
2023-08-10T02:15:43.358Z,12
2023-08-10T02:18:14.647Z,8
2023-08-10T02:20:47.772Z,8
2023-08-10T02:23:18.980Z,8
2023-08-10T02:25:50.241Z,8
2023-08-10T02:28:25.469Z,8
2023-08-10T02:30:56.713Z,8
2023-08-10T02:33:28.742Z,8
2023-08-10T02:36:02.052Z,8
2023-08-10T02:38:34.489Z,8
2023-08-10T02:41:05.169Z,12
2023-08-10T02:43:36.207Z,11
2023-08-10T02:46:07.304Z,8
2023-08-10T02:48:38.643Z,8
2023-08-10T02:51:12.195Z,12
2023-08-10T02:53:43.246Z,8
2023-08-10T02:56:14.286Z,8
2023-08-10T02:58:45.599Z,8
2023-08-10T03:01:17.876Z,8
2023-08-10T03:03:48.512Z,8
2023-08-10T03:06:19.336Z,8
2023-08-10T03:08:50.396Z,8
2023-08-10T03:11:22.825Z,5
2023-08-10T03:13:54.288Z,8
2023-08-10T03:16:25.843Z,8
2023-08-10T03:18:58.030Z,5
2023-08-10T03:21:29.372Z,8
2023-08-10T03:24:04.209Z,8
2023-08-10T03:26:37.698Z,8
2023-08-10T03:29:08.900Z,8
2023-08-10T03:31:40.164Z,8
2023-08-10T03:34:14.289Z,8
2023-08-10T03:36:45.396Z,8
2023-08-10T03:39:18.365Z,8
2023-08-10T03:41:49.400Z,5
2023-08-10T03:44:22.086Z,8
2023-08-10T03:46:53.894Z,4
2023-08-10T03:49:26.947Z,4
2023-08-10T03:51:59.954Z,5
2023-08-10T03:54:32.226Z,4
2023-08-10T03:57:03.150Z,8
2023-08-10T03:59:34.634Z,4
2023-08-10T04:02:06.134Z,4
2023-08-10T04:04:36.957Z,6
2023-08-10T04:07:08.553Z,4
2023-08-10T04:09:39.954Z,8
2023-08-10T04:12:13.243Z,4
2023-08-10T04:14:44.280Z,4
2023-08-10T04:17:14.737Z,4
2023-08-10T04:19:46.750Z,8
2023-08-10T04:22:17.972Z,8
2023-08-10T04:24:49.341Z,4
2023-08-10T04:27:20.689Z,8
2023-08-10T04:29:55.005Z,4
2023-08-10T04:32:26.116Z,8
2023-08-10T04:34:58.035Z,6
2023-08-10T04:37:27.243Z,4
2023-08-10T04:39:58.069Z,8
2023-08-10T04:42:30.882Z,8
2023-08-10T04:45:02.138Z,16
2023-08-10T04:47:33.390Z,8
2023-08-10T04:50:06.338Z,11
2023-08-10T04:52:37.214Z,13
2023-08-10T04:55:08.118Z,8
2023-08-10T04:57:39.420Z,7
2023-08-10T05:00:10.140Z,5
2023-08-10T05:02:48.426Z,8
2023-08-10T05:05:18.800Z,7
2023-08-10T05:07:50.175Z,7
2023-08-10T05:10:22.249Z,7
2023-08-10T05:12:51.656Z,7
2023-08-10T05:15:22.623Z,8
2023-08-10T05:17:53.575Z,8
2023-08-10T05:20:24.878Z,8
2023-08-10T05:22:56.445Z,8
2023-08-10T05:25:28.316Z,8
2023-08-10T05:27:59.362Z,8
2023-08-10T05:30:32.113Z,8
2023-08-10T05:33:02.793Z,8
2023-08-10T05:35:34.388Z,4
2023-08-10T05:38:06.036Z,8
2023-08-10T05:40:37.024Z,8
2023-08-10T05:43:10.085Z,8
2023-08-10T05:45:41.215Z,8
2023-08-10T05:48:13.432Z,8
2023-08-10T05:50:46.254Z,8
2023-08-10T05:53:17.161Z,8
2023-08-10T05:55:47.937Z,12
2023-08-10T05:58:19.151Z,11
2023-08-10T06:00:53.829Z,10
2023-08-10T06:03:30.062Z,12
2023-08-10T06:06:00.738Z,10
2023-08-10T06:08:32.128Z,9
2023-08-10T06:11:04.155Z,12
2023-08-10T06:13:37.955Z,12
2023-08-10T06:16:09.985Z,8
2023-08-10T06:18:43.579Z,8
2023-08-10T06:21:14.396Z,8
2023-08-10T06:23:56.029Z,8
2023-08-10T06:26:28.017Z,8
2023-08-10T06:29:02.893Z,8
2023-08-10T06:31:38.808Z,8
2023-08-10T06:34:34.411Z,8
2023-08-10T06:37:05.141Z,8
2023-08-10T06:39:35.487Z,7
2023-08-10T06:42:06.379Z,8
2023-08-10T06:44:35.562Z,8
2023-08-10T06:47:06.844Z,9
2023-08-10T06:49:38.436Z,8
2023-08-10T06:52:10.048Z,8
2023-08-10T06:54:42.135Z,12
2023-08-10T06:57:13.555Z,12
2023-08-10T07:04:46.677Z,12
2023-08-10T07:07:19.221Z,12
2023-08-10T07:09:50.841Z,8
2023-08-10T07:12:21.511Z,12
2023-08-10T07:14:53.828Z,8
2023-08-10T07:17:25.870Z,8
2023-08-10T07:19:57.289Z,8
2023-08-10T07:22:26.598Z,8
2023-08-10T07:24:57.337Z,8
2023-08-10T07:30:00.199Z,8
2023-08-10T07:32:30.998Z,12
2023-08-10T07:35:05.329Z,23
2023-08-10T07:37:37.284Z,8
2023-08-10T07:40:08.255Z,12
2023-08-10T07:42:39.864Z,8
2023-08-10T07:45:16.674Z,12
2023-08-10T07:47:47.762Z,12
2023-08-10T07:50:18.482Z,8
2023-08-10T07:52:49.496Z,8
2023-08-10T07:55:23.513Z,10
2023-08-10T07:57:53.116Z,14
2023-08-10T08:00:24.812Z,12
2023-08-10T08:02:54.149Z,12
2023-08-10T08:05:24.368Z,8
2023-08-10T08:07:55.242Z,12
2023-08-10T08:10:26.060Z,8
2023-08-10T08:12:56.548Z,12
2023-08-10T08:15:27.528Z,11
2023-08-10T08:18:05.052Z,10
2023-08-10T08:20:36.399Z,12
2023-08-10T08:23:08.194Z,8
2023-08-10T08:25:40.704Z,8
2023-08-10T08:28:12.231Z,12
2023-08-10T08:30:46.246Z,8
2023-08-10T08:33:16.692Z,12
2023-08-10T08:35:47.438Z,8
2023-08-10T08:38:18.056Z,8
2023-08-10T08:40:48.673Z,8
2023-08-10T08:43:20.554Z,8
2023-08-10T08:45:54.152Z,8
2023-08-10T08:48:24.766Z,11
2023-08-10T08:50:55.630Z,12
2023-08-10T08:53:27.774Z,8
2023-08-10T08:55:58.533Z,12
2023-08-10T08:58:29.339Z,8
2023-08-10T09:00:59.984Z,12
2023-08-10T09:03:31.172Z,12
2023-08-10T09:06:01.852Z,8
2023-08-10T09:08:33.008Z,10
2023-08-10T09:11:03.730Z,8
2023-08-10T09:13:36.194Z,10
2023-08-10T09:16:08.845Z,8
2023-08-10T09:18:39.603Z,12
2023-08-10T09:21:08.742Z,8
2023-08-10T09:23:39.841Z,12
2023-08-10T09:26:13.196Z,9
2023-08-10T09:28:43.912Z,12
2023-08-10T09:31:15.722Z,8
2023-08-10T09:33:45.899Z,8
2023-08-10T09:36:16.730Z,8
2023-08-10T09:38:48.751Z,12
2023-08-10T09:41:19.452Z,12
2023-08-10T09:43:52.441Z,8
2023-08-10T09:46:25.825Z,9
2023-08-10T09:48:56.246Z,8
2023-08-10T09:51:25.969Z,9
2023-08-10T09:53:55.200Z,12
2023-08-10T09:56:25.346Z,8
2023-08-10T09:58:57.012Z,12
2023-08-10T10:01:28.370Z,8
2023-08-10T10:03:59.196Z,12
2023-08-10T10:06:31.002Z,12
2023-08-10T10:09:09.363Z,12
2023-08-10T10:11:39.603Z,8
2023-08-10T10:14:10.927Z,12
2023-08-10T10:16:42.496Z,8
2023-08-10T10:19:14.835Z,10
2023-08-10T10:21:47.386Z,12
2023-08-10T10:24:18.879Z,12
2023-08-10T10:26:50.380Z,12
2023-08-10T10:29:22.460Z,12
2023-08-10T10:31:55.285Z,12
2023-08-10T10:34:27.966Z,8
2023-08-10T10:36:59.682Z,12
2023-08-10T10:39:30.533Z,12
2023-08-10T10:42:03.669Z,22
2023-08-10T10:44:36.325Z,16
2023-08-10T10:47:06.694Z,8
2023-08-10T10:49:37.104Z,8
2023-08-10T10:52:13.662Z,8
2023-08-10T10:54:47.274Z,12
2023-08-10T10:57:20.528Z,12
2023-08-10T10:59:51.799Z,8
2023-08-10T11:02:28.441Z,8
2023-08-10T11:05:02.123Z,11
2023-08-10T11:07:32.413Z,10
2023-08-10T11:10:05.653Z,12
2023-08-10T11:12:36.277Z,8
2023-08-10T11:15:15.623Z,8
2023-08-10T11:17:49.826Z,12
2023-08-10T11:20:27.441Z,12
2023-08-10T11:23:01.039Z,12
2023-08-10T11:25:33.767Z,8
2023-08-10T11:28:07.335Z,8
2023-08-10T11:30:42.892Z,8
2023-08-10T11:33:13.390Z,8
2023-08-10T11:35:43.810Z,8
2023-08-10T11:38:16.189Z,5
2023-08-10T11:40:46.147Z,8
2023-08-10T11:43:17.276Z,8
2023-08-10T11:45:48.019Z,4
2023-08-10T11:48:21.007Z,8
2023-08-10T11:50:53.588Z,8
2023-08-10T11:53:24.555Z,8
2023-08-10T11:55:55.809Z,8
2023-08-10T11:58:26.445Z,6
2023-08-10T12:00:57.101Z,8
2023-08-10T12:03:35.301Z,8
2023-08-10T12:05:59.471Z,8
2023-08-10T12:08:40.660Z,8
2023-08-10T12:11:19.185Z,4
2023-08-10T12:13:50.161Z,4
2023-08-10T12:16:20.798Z,8
2023-08-10T12:18:51.949Z,8
2023-08-10T12:21:22.489Z,5
2023-08-10T12:23:52.668Z,8
2023-08-10T12:26:22.995Z,7
2023-08-10T12:28:54.402Z,8
2023-08-10T12:31:24.940Z,8
2023-08-10T12:33:55.094Z,8
2023-08-10T12:36:25.870Z,8
2023-08-10T12:38:57.452Z,8
2023-08-10T12:41:28.091Z,12
2023-08-10T12:43:59.186Z,12
2023-08-10T12:46:29.676Z,10
2023-08-10T12:49:01.786Z,12
2023-08-10T12:51:35.874Z,8
2023-08-10T12:54:06.511Z,8
2023-08-10T12:56:37.405Z,12
2023-08-10T12:59:08.691Z,12
2023-08-10T13:01:39.830Z,32
2023-08-10T13:04:11.739Z,61
2023-08-10T13:06:42.363Z,27
2023-08-10T13:09:12.873Z,54
2023-08-10T13:11:43.318Z,97
2023-08-10T13:14:16.076Z,26
2023-08-10T13:16:46.492Z,36
2023-08-10T13:19:17.931Z,32
2023-08-10T13:21:49.750Z,27
2023-08-10T13:24:20.128Z,30
2023-08-10T13:26:55.270Z,16
2023-08-10T13:29:27.223Z,20
2023-08-10T13:32:00.350Z,15
2023-08-10T13:34:29.356Z,22
2023-08-10T13:36:58.282Z,14
2023-08-10T13:39:33.596Z,20
2023-08-10T13:42:09.419Z,20
2023-08-10T13:44:39.634Z,16
2023-08-10T13:47:10.905Z,20
2023-08-10T13:49:53.396Z,15
2023-08-10T13:52:13.422Z,16
2023-08-10T13:54:44.122Z,11
2023-08-10T13:57:14.448Z,12
2023-08-10T13:59:48.179Z,13
2023-08-10T14:02:18.485Z,12
2023-08-10T14:04:49.568Z,12
2023-08-10T14:07:21.093Z,12
2023-08-10T14:09:53.298Z,12
2023-08-10T14:12:23.769Z,10
2023-08-10T14:14:55.142Z,12
2023-08-10T14:17:25.589Z,12
2023-08-10T14:19:56.705Z,12
2023-08-10T14:22:27.030Z,9
2023-08-10T14:25:02.796Z,12
2023-08-10T14:27:31.292Z,12
2023-08-10T14:30:04.190Z,11
2023-08-10T14:32:34.840Z,10
2023-08-10T14:35:06.325Z,9
2023-08-10T14:37:37.747Z,8
2023-08-10T14:40:08.588Z,8
2023-08-10T14:42:39.805Z,8
2023-08-10T14:45:10.469Z,8
2023-08-10T14:47:41.382Z,8
2023-08-10T14:50:15.272Z,8
2023-08-10T14:52:46.200Z,7
2023-08-10T14:55:21.608Z,8
2023-08-10T14:57:46.293Z,8
2023-08-10T15:00:16.626Z,8
2023-08-10T15:02:49.339Z,8
2023-08-10T15:05:30.741Z,8
2023-08-10T15:08:05.430Z,6
2023-08-10T15:10:41.070Z,4
2023-08-10T15:13:12.608Z,8
2023-08-10T15:15:51.862Z,4
2023-08-10T15:18:24.440Z,8
2023-08-10T15:20:54.344Z,8
2023-08-10T15:23:39.883Z,9
2023-08-10T15:25:56.521Z,13
2023-08-10T15:28:36.111Z,8
2023-08-10T15:34:29.577Z,12
2023-08-10T15:36:59.630Z,10
2023-08-10T15:39:28.593Z,12
2023-08-10T15:41:59.738Z,24
2023-08-10T15:44:34.172Z,19
2023-08-10T15:47:04.194Z,12
2023-08-10T15:49:36.822Z,8
2023-08-10T15:52:05.580Z,8
2023-08-10T15:54:37.779Z,8
2023-08-10T15:57:09.232Z,8
2023-08-10T15:59:40.171Z,8
2023-08-10T16:02:08.748Z,10
2023-08-10T16:04:41.172Z,8
2023-08-10T16:07:12.907Z,8
2023-08-10T16:09:43.004Z,8
2023-08-10T16:12:19.613Z,8
2023-08-10T16:14:48.424Z,12
2023-08-10T16:17:24.989Z,12
2023-08-10T16:20:02.603Z,12
2023-08-10T16:25:17.786Z,8
2023-08-10T16:27:49.957Z,10
2023-08-10T16:30:22.324Z,12
2023-08-10T16:32:53.058Z,12
2023-08-10T16:35:31.517Z,16
2023-08-10T16:38:11.803Z,16
2023-08-10T16:40:52.505Z,16
2023-08-10T16:43:26.826Z,16
2023-08-10T16:45:56.884Z,12
2023-08-10T16:48:28.570Z,16
2023-08-10T16:51:09.242Z,19
2023-08-10T16:53:40.470Z,16
2023-08-10T16:56:10.523Z,16
2023-08-10T16:58:40.626Z,16
2023-08-10T17:01:12.048Z,16
2023-08-10T17:03:45.179Z,16
2023-08-10T17:06:19.628Z,16
2023-08-10T17:08:49.597Z,12
2023-08-10T17:11:20.455Z,12
2023-08-10T17:13:52.837Z,16
2023-08-10T17:16:22.937Z,12
2023-08-10T17:18:57.444Z,13
2023-08-10T17:21:27.259Z,16
2023-08-10T17:23:56.236Z,13
2023-08-10T17:26:26.865Z,16
2023-08-10T17:29:03.419Z,16
2023-08-10T17:31:31.141Z,14
2023-08-10T17:34:01.218Z,16
2023-08-10T17:36:30.483Z,16
2023-08-10T17:39:01.616Z,16
2023-08-10T17:41:39.092Z,16
2023-08-10T17:44:10.509Z,16
2023-08-10T17:46:40.394Z,16
2023-08-10T17:49:11.288Z,18
2023-08-10T17:51:43.689Z,16
2023-08-10T17:54:14.603Z,16
2023-08-10T17:56:53.550Z,12
2023-08-10T17:59:24.305Z,20
2023-08-10T18:01:58.211Z,16
2023-08-10T18:04:34.507Z,16
2023-08-10T18:07:04.575Z,12
2023-08-10T18:09:34.599Z,12
2023-08-10T18:12:05.829Z,16
2023-08-10T18:14:36.389Z,14
2023-08-10T18:17:08.620Z,13
2023-08-10T18:19:40.090Z,20
2023-08-10T18:22:19.730Z,20
2023-08-10T18:24:57.676Z,20
2023-08-10T18:27:31.584Z,20
2023-08-10T18:30:07.533Z,16
2023-08-10T18:32:38.052Z,16
2023-08-10T18:35:16.405Z,16
2023-08-10T18:37:47.030Z,20
2023-08-10T18:40:18.711Z,20
2023-08-10T18:42:58.958Z,20
2023-08-10T18:45:29.024Z,16
2023-08-10T18:48:00.665Z,20
2023-08-10T18:50:30.628Z,20
2023-08-10T18:53:01.580Z,20
2023-08-10T18:55:34.157Z,24
2023-08-10T18:58:05.491Z,20
2023-08-10T19:00:36.073Z,16
2023-08-10T19:03:05.215Z,20
2023-08-10T19:05:35.728Z,21
2023-08-10T19:08:06.347Z,13
2023-08-10T19:10:38.324Z,16
2023-08-10T19:13:09.106Z,16
2023-08-10T19:15:39.663Z,20
2023-08-10T19:18:10.793Z,20
2023-08-10T19:20:42.471Z,20
2023-08-10T19:23:12.823Z,20
2023-08-10T19:25:45.377Z,20
2023-08-10T19:28:16.394Z,21
2023-08-10T19:30:48.210Z,20
2023-08-10T19:33:20.712Z,21
2023-08-10T19:35:51.112Z,17
2023-08-10T19:38:24.638Z,20
2023-08-10T19:40:59.752Z,20
2023-08-10T19:43:33.049Z,20
2023-08-10T19:46:04.110Z,18
2023-08-10T19:48:37.782Z,20
2023-08-10T19:51:10.275Z,20
2023-08-10T19:53:40.948Z,20
2023-08-10T19:56:09.933Z,16
2023-08-10T19:58:41.961Z,16
2023-08-10T20:01:13.893Z,16
2023-08-10T20:03:42.872Z,16
2023-08-10T20:06:13.599Z,13
2023-08-10T20:08:46.696Z,16
2023-08-10T20:11:19.214Z,20
2023-08-10T20:13:49.647Z,16
2023-08-10T20:16:20.297Z,20
2023-08-10T20:18:52.553Z,20
2023-08-10T20:21:24.011Z,19
2023-08-10T20:23:55.087Z,19
2023-08-10T20:26:24.150Z,20
2023-08-10T20:28:55.915Z,20
2023-08-10T20:31:26.752Z,20
2023-08-10T20:33:55.872Z,20
2023-08-10T20:36:25.049Z,20
2023-08-10T20:38:55.754Z,20
2023-08-10T20:41:28.394Z,20
2023-08-10T20:44:01.340Z,16
2023-08-10T20:46:30.552Z,12
2023-08-10T20:49:05.185Z,19
2023-08-10T20:51:36.588Z,20
2023-08-10T20:54:05.627Z,20
2023-08-10T20:56:37.536Z,16
2023-08-10T20:59:07.833Z,16
2023-08-10T21:01:38.936Z,16
2023-08-10T21:04:10.009Z,12
2023-08-10T21:06:40.430Z,12
2023-08-10T21:09:11.542Z,16
2023-08-10T21:11:44.307Z,12
2023-08-10T21:14:21.731Z,16
2023-08-10T21:16:51.988Z,14
2023-08-10T21:19:22.299Z,12
2023-08-10T21:21:55.744Z,16
2023-08-10T21:24:28.174Z,18
2023-08-10T21:27:00.948Z,20
2023-08-10T21:29:31.738Z,20
2023-08-10T21:32:05.739Z,18
2023-08-10T21:34:37.041Z,16
2023-08-10T21:37:07.988Z,16
2023-08-10T21:39:41.697Z,16
2023-08-10T21:42:11.109Z,16
2023-08-10T21:44:42.133Z,16
2023-08-10T21:47:14.034Z,16
2023-08-10T21:49:44.250Z,20
2023-08-10T21:52:15.062Z,18
2023-08-10T21:54:45.811Z,16
2023-08-10T21:57:17.927Z,16
2023-08-10T21:59:48.472Z,16
2023-08-10T22:02:21.795Z,16
2023-08-10T22:04:53.657Z,16
2023-08-10T22:07:28.087Z,16
2023-08-10T22:10:05.840Z,16
2023-08-10T22:12:36.130Z,16
2023-08-10T22:15:05.212Z,20
2023-08-10T22:17:37.394Z,20
2023-08-10T22:20:08.597Z,18
2023-08-10T22:22:43.346Z,20
2023-08-10T22:25:10.363Z,16
2023-08-10T22:27:39.338Z,18
2023-08-10T22:30:10.761Z,19
2023-08-10T22:32:44.783Z,16
2023-08-10T22:35:15.546Z,16
2023-08-10T22:37:46.051Z,16
2023-08-10T22:40:16.688Z,16
2023-08-10T22:42:47.234Z,20
2023-08-10T22:45:18.374Z,16
2023-08-10T22:47:49.211Z,20
2023-08-10T22:50:19.893Z,16
2023-08-10T22:52:48.999Z,17
2023-08-10T22:55:19.622Z,16
2023-08-10T22:57:48.931Z,16
2023-08-10T23:00:19.446Z,20
2023-08-10T23:02:51.956Z,20
2023-08-10T23:05:25.187Z,19
2023-08-10T23:07:57.015Z,20
2023-08-10T23:10:28.071Z,18
2023-08-10T23:12:59.340Z,16
2023-08-10T23:15:30.242Z,16
2023-08-10T23:18:01.938Z,16
2023-08-10T23:20:34.796Z,18
2023-08-10T23:23:05.685Z,16
2023-08-10T23:25:37.588Z,20
2023-08-10T23:28:08.462Z,20
2023-08-10T23:30:39.542Z,20
2023-08-10T23:33:11.439Z,16
2023-08-10T23:35:42.291Z,20
2023-08-10T23:38:14.114Z,20
2023-08-10T23:40:45.652Z,16
2023-08-10T23:43:16.280Z,16
2023-08-10T23:45:47.872Z,16
2023-08-10T23:48:20.274Z,16
2023-08-10T23:50:50.907Z,17
2023-08-10T23:53:22.809Z,16
2023-08-10T23:55:54.758Z,16
2023-08-10T23:58:36.762Z,16
